Overview Statistics Trail Chart Weather Telemetry Raw packets
 

This is the latest recevied weather packets stored in our database for station/object VE3EP-1. If no packets are shown the sender has not sent any weather packets the latest 10 day(s).

<< 10 11 12 13 14 15 16 >>
Time Temp. Humidity Pressure Rain* Wind** Luminosity Snow
1788300248 24.44° C 81% 1017.3 hPa 0 mm - - -
1788299648 23.89° C 84% 1017.2 hPa 0 mm - - -
1788299049 23.33° C 84% 1017.4 hPa 0 mm - - -
1788298448 23.89° C 82% 1017.5 hPa 0 mm - - -
1788297848 24.44° C 81% 1017.4 hPa 0 mm - - -
1788297247 23.33° C 84% 1017.3 hPa 0 mm - - -
1788296666 23.33° C 84% 1017.4 hPa 0 mm - - -
1788296047 23.33° C 83% 1017.3 hPa 0 mm - - -
1788295447 23.33° C 81% 1017.4 hPa 0 mm - - -
1788294847 23.33° C 83% 1017.3 hPa 0 mm - - -
1788294247 23.89° C 80% 1017.6 hPa 0 mm - - -
1788293648 23.33° C 83% 1017.4 hPa 0 mm - - -
1788292447 23.33° C 84% 1017.5 hPa 0 mm - - -
1788291848 23.33° C 82% 1017.5 hPa 0 mm - - -
1788291248 23.89° C 80% 1017.3 hPa 0 mm - - -
1788290047 23.33° C 84% 1017.2 hPa 0 mm - - -
1788288847 22.78° C 87% 1017.2 hPa 0 mm - - -
1788287047 22.22° C 88% 1017.2 hPa 0 mm - - -
1788285847 22.22° C 89% 1017.4 hPa 0 mm - - -
1788284648 21.67° C 89% 1017.5 hPa 0 mm - - -
1788284047 21.67° C 89% 1017.3 hPa 0 mm - - -
1788283448 21.11° C 91% 1017.2 hPa 0 mm - - -
1788282847 21.11° C 91% 1017.4 hPa 0 mm - - -
1788282247 21.11° C 91% 1017.2 hPa 0 mm - - -
1788281647 21.11° C 91% 1017.2 hPa 0 mm - - -

* Rain latest hour (hover to see other rain measurements)
** Current wind speed in m/s (hover to see current wind gust speed)